sensor_id;sensor_type;location;lat;lon;timestamp;temperature;humidity
22319;DHT22;11327;52.334;9.506;2023-07-08T00:02:10;17.60;99.90
22319;DHT22;11327;52.334;9.506;2023-07-08T00:05:31;17.60;99.90
22319;DHT22;11327;52.334;9.506;2023-07-08T00:08:52;17.60;99.90
22319;DHT22;11327;52.334;9.506;2023-07-08T00:12:13;17.60;99.90
22319;DHT22;11327;52.334;9.506;2023-07-08T00:15:35;17.50;99.90
22319;DHT22;11327;52.334;9.506;2023-07-08T00:18:56;17.50;99.90
22319;DHT22;11327;52.334;9.506;2023-07-08T00:22:17;17.50;99.90
22319;DHT22;11327;52.334;9.506;2023-07-08T00:25:38;17.40;99.90
22319;DHT22;11327;52.334;9.506;2023-07-08T00:28:59;17.40;99.90
22319;DHT22;11327;52.334;9.506;2023-07-08T00:32:20;17.40;99.90
22319;DHT22;11327;52.334;9.506;2023-07-08T00:35:42;17.40;99.90
22319;DHT22;11327;52.334;9.506;2023-07-08T00:39:08;17.30;99.90
22319;DHT22;11327;52.334;9.506;2023-07-08T00:42:28;17.20;99.90
22319;DHT22;11327;52.334;9.506;2023-07-08T00:45:50;17.10;99.90
22319;DHT22;11327;52.334;9.506;2023-07-08T00:49:45;17.10;99.90
22319;DHT22;11327;52.334;9.506;2023-07-08T00:53:24;17.00;99.90
22319;DHT22;11327;52.334;9.506;2023-07-08T01:00:33;16.70;99.90
22319;DHT22;11327;52.334;9.506;2023-07-08T01:04:04;16.70;99.90
22319;DHT22;11327;52.334;9.506;2023-07-08T01:07:25;16.60;99.90
22319;DHT22;11327;52.334;9.506;2023-07-08T01:10:52;16.70;99.90
22319;DHT22;11327;52.334;9.506;2023-07-08T01:14:16;16.70;99.90
22319;DHT22;11327;52.334;9.506;2023-07-08T01:17:38;16.70;99.90
22319;DHT22;11327;52.334;9.506;2023-07-08T01:21:05;16.70;99.90
22319;DHT22;11327;52.334;9.506;2023-07-08T01:24:28;16.50;99.90
22319;DHT22;11327;52.334;9.506;2023-07-08T01:27:53;16.50;99.90
22319;DHT22;11327;52.334;9.506;2023-07-08T01:31:14;16.40;99.90
22319;DHT22;11327;52.334;9.506;2023-07-08T01:34:36;16.40;99.90
22319;DHT22;11327;52.334;9.506;2023-07-08T01:38:00;16.40;99.90
22319;DHT22;11327;52.334;9.506;2023-07-08T01:41:22;16.40;99.90
22319;DHT22;11327;52.334;9.506;2023-07-08T01:44:42;16.30;99.90
22319;DHT22;11327;52.334;9.506;2023-07-08T01:48:06;16.30;99.90
22319;DHT22;11327;52.334;9.506;2023-07-08T01:51:27;16.20;99.90
22319;DHT22;11327;52.334;9.506;2023-07-08T01:54:56;16.20;99.90
22319;DHT22;11327;52.334;9.506;2023-07-08T01:58:17;16.20;99.90
22319;DHT22;11327;52.334;9.506;2023-07-08T02:01:38;16.20;99.90
22319;DHT22;11327;52.334;9.506;2023-07-08T02:04:58;16.10;99.90
22319;DHT22;11327;52.334;9.506;2023-07-08T02:08:19;16.10;99.90
22319;DHT22;11327;52.334;9.506;2023-07-08T02:11:40;16.10;99.90
22319;DHT22;11327;52.334;9.506;2023-07-08T02:15:02;16.00;99.90
22319;DHT22;11327;52.334;9.506;2023-07-08T02:18:23;16.00;99.90
22319;DHT22;11327;52.334;9.506;2023-07-08T02:21:46;16.00;99.90
22319;DHT22;11327;52.334;9.506;2023-07-08T02:25:07;15.90;99.90
22319;DHT22;11327;52.334;9.506;2023-07-08T02:28:29;15.90;99.90
22319;DHT22;11327;52.334;9.506;2023-07-08T02:31:50;15.80;99.90
22319;DHT22;11327;52.334;9.506;2023-07-08T02:35:11;15.80;99.90
22319;DHT22;11327;52.334;9.506;2023-07-08T02:38:31;15.80;99.90
22319;DHT22;11327;52.334;9.506;2023-07-08T02:41:52;15.70;99.90
22319;DHT22;11327;52.334;9.506;2023-07-08T02:45:13;15.70;99.90
22319;DHT22;11327;52.334;9.506;2023-07-08T02:48:34;15.60;99.90
22319;DHT22;11327;52.334;9.506;2023-07-08T02:51:55;15.60;99.90
22319;DHT22;11327;52.334;9.506;2023-07-08T02:55:15;15.40;99.90
22319;DHT22;11327;52.334;9.506;2023-07-08T02:58:36;15.40;99.90
22319;DHT22;11327;52.334;9.506;2023-07-08T03:01:57;15.30;99.90
22319;DHT22;11327;52.334;9.506;2023-07-08T03:05:18;15.40;99.90
22319;DHT22;11327;52.334;9.506;2023-07-08T03:08:39;15.40;99.90
22319;DHT22;11327;52.334;9.506;2023-07-08T03:12:00;15.40;99.90
22319;DHT22;11327;52.334;9.506;2023-07-08T03:15:21;15.40;99.90
22319;DHT22;11327;52.334;9.506;2023-07-08T03:18:42;15.40;99.90
22319;DHT22;11327;52.334;9.506;2023-07-08T03:22:04;15.40;99.90
22319;DHT22;11327;52.334;9.506;2023-07-08T03:25:26;15.30;99.90
22319;DHT22;11327;52.334;9.506;2023-07-08T03:28:47;15.30;99.90
22319;DHT22;11327;52.334;9.506;2023-07-08T03:32:11;15.30;99.90
22319;DHT22;11327;52.334;9.506;2023-07-08T03:35:32;15.20;99.90
22319;DHT22;11327;52.334;9.506;2023-07-08T03:38:56;15.10;99.90
22319;DHT22;11327;52.334;9.506;2023-07-08T03:42:17;15.20;99.90
22319;DHT22;11327;52.334;9.506;2023-07-08T03:45:37;15.20;99.90
22319;DHT22;11327;52.334;9.506;2023-07-08T03:48:58;15.20;99.90
22319;DHT22;11327;52.334;9.506;2023-07-08T03:52:19;15.20;99.90
22319;DHT22;11327;52.334;9.506;2023-07-08T03:55:40;15.20;99.90
22319;DHT22;11327;52.334;9.506;2023-07-08T03:59:00;15.20;99.90
22319;DHT22;11327;52.334;9.506;2023-07-08T04:02:21;15.20;99.90
22319;DHT22;11327;52.334;9.506;2023-07-08T04:05:42;15.20;99.90
22319;DHT22;11327;52.334;9.506;2023-07-08T04:09:02;15.20;99.90
22319;DHT22;11327;52.334;9.506;2023-07-08T04:12:23;15.20;99.90
22319;DHT22;11327;52.334;9.506;2023-07-08T04:15:44;15.30;99.90
22319;DHT22;11327;52.334;9.506;2023-07-08T04:19:05;15.30;99.90
22319;DHT22;11327;52.334;9.506;2023-07-08T04:22:28;15.40;99.90
22319;DHT22;11327;52.334;9.506;2023-07-08T04:25:49;15.40;99.90
22319;DHT22;11327;52.334;9.506;2023-07-08T04:29:12;15.50;99.90
22319;DHT22;11327;52.334;9.506;2023-07-08T04:32:33;15.50;99.90
22319;DHT22;11327;52.334;9.506;2023-07-08T04:35:54;15.60;99.90
22319;DHT22;11327;52.334;9.506;2023-07-08T04:39:15;15.50;99.90
22319;DHT22;11327;52.334;9.506;2023-07-08T04:42:36;15.60;99.90
22319;DHT22;11327;52.334;9.506;2023-07-08T04:45:57;15.70;99.90
22319;DHT22;11327;52.334;9.506;2023-07-08T04:49:18;15.80;99.90
22319;DHT22;11327;52.334;9.506;2023-07-08T04:52:38;15.90;99.90
22319;DHT22;11327;52.334;9.506;2023-07-08T04:55:59;15.90;99.90
22319;DHT22;11327;52.334;9.506;2023-07-08T04:59:23;16.00;99.90
22319;DHT22;11327;52.334;9.506;2023-07-08T05:02:43;16.00;99.90
22319;DHT22;11327;52.334;9.506;2023-07-08T05:06:04;16.10;99.90
22319;DHT22;11327;52.334;9.506;2023-07-08T05:09:25;16.30;99.90
22319;DHT22;11327;52.334;9.506;2023-07-08T05:12:47;16.30;99.90
22319;DHT22;11327;52.334;9.506;2023-07-08T05:16:07;16.40;99.90
22319;DHT22;11327;52.334;9.506;2023-07-08T05:19:28;16.50;99.90
22319;DHT22;11327;52.334;9.506;2023-07-08T05:22:49;16.60;99.90
22319;DHT22;11327;52.334;9.506;2023-07-08T05:26:10;16.70;99.90
22319;DHT22;11327;52.334;9.506;2023-07-08T05:29:30;16.80;99.90
22319;DHT22;11327;52.334;9.506;2023-07-08T05:32:53;17.00;99.90
22319;DHT22;11327;52.334;9.506;2023-07-08T05:36:13;17.10;99.90
22319;DHT22;11327;52.334;9.506;2023-07-08T05:39:34;17.20;99.90
22319;DHT22;11327;52.334;9.506;2023-07-08T05:42:55;17.30;99.90
22319;DHT22;11327;52.334;9.506;2023-07-08T05:46:15;17.40;99.90
22319;DHT22;11327;52.334;9.506;2023-07-08T05:49:36;17.50;99.90
22319;DHT22;11327;52.334;9.506;2023-07-08T05:52:57;17.60;99.90
22319;DHT22;11327;52.334;9.506;2023-07-08T05:56:18;17.80;99.90
22319;DHT22;11327;52.334;9.506;2023-07-08T05:59:38;17.90;99.90
22319;DHT22;11327;52.334;9.506;2023-07-08T06:03:00;18.10;99.90
22319;DHT22;11327;52.334;9.506;2023-07-08T06:06:20;18.20;99.90
22319;DHT22;11327;52.334;9.506;2023-07-08T06:09:41;18.30;99.90
22319;DHT22;11327;52.334;9.506;2023-07-08T06:13:02;18.40;99.90
22319;DHT22;11327;52.334;9.506;2023-07-08T06:16:24;18.50;99.90
22319;DHT22;11327;52.334;9.506;2023-07-08T06:19:44;18.60;99.90
22319;DHT22;11327;52.334;9.506;2023-07-08T06:23:05;18.80;99.90
22319;DHT22;11327;52.334;9.506;2023-07-08T06:26:26;18.90;99.90
22319;DHT22;11327;52.334;9.506;2023-07-08T06:29:46;19.10;99.90
22319;DHT22;11327;52.334;9.506;2023-07-08T06:33:07;19.20;99.90
22319;DHT22;11327;52.334;9.506;2023-07-08T06:36:28;19.30;99.90
22319;DHT22;11327;52.334;9.506;2023-07-08T06:39:49;19.40;99.90
22319;DHT22;11327;52.334;9.506;2023-07-08T06:43:09;19.60;99.90
22319;DHT22;11327;52.334;9.506;2023-07-08T06:46:30;19.70;99.90
22319;DHT22;11327;52.334;9.506;2023-07-08T06:49:51;19.90;99.90
22319;DHT22;11327;52.334;9.506;2023-07-08T06:53:11;20.00;99.90
22319;DHT22;11327;52.334;9.506;2023-07-08T06:56:32;20.10;99.90
22319;DHT22;11327;52.334;9.506;2023-07-08T06:59:53;20.30;99.90
22319;DHT22;11327;52.334;9.506;2023-07-08T07:03:14;20.40;99.90
22319;DHT22;11327;52.334;9.506;2023-07-08T07:06:34;20.50;99.90
22319;DHT22;11327;52.334;9.506;2023-07-08T07:09:55;20.60;99.90
22319;DHT22;11327;52.334;9.506;2023-07-08T07:13:16;20.90;99.90
22319;DHT22;11327;52.334;9.506;2023-07-08T07:16:36;21.00;99.90
22319;DHT22;11327;52.334;9.506;2023-07-08T07:19:57;21.20;99.90
22319;DHT22;11327;52.334;9.506;2023-07-08T07:23:18;21.40;99.90
22319;DHT22;11327;52.334;9.506;2023-07-08T07:26:39;21.60;99.90
22319;DHT22;11327;52.334;9.506;2023-07-08T07:29:59;21.70;99.90
22319;DHT22;11327;52.334;9.506;2023-07-08T07:33:20;21.80;99.90
22319;DHT22;11327;52.334;9.506;2023-07-08T07:36:41;22.00;99.90
22319;DHT22;11327;52.334;9.506;2023-07-08T07:40:01;22.10;99.90
22319;DHT22;11327;52.334;9.506;2023-07-08T07:43:22;22.20;99.90
22319;DHT22;11327;52.334;9.506;2023-07-08T07:46:43;22.30;99.90
22319;DHT22;11327;52.334;9.506;2023-07-08T07:50:05;22.40;99.90
22319;DHT22;11327;52.334;9.506;2023-07-08T07:53:26;22.50;99.90
22319;DHT22;11327;52.334;9.506;2023-07-08T07:56:47;22.60;99.90
22319;DHT22;11327;52.334;9.506;2023-07-08T08:00:09;22.70;99.90
22319;DHT22;11327;52.334;9.506;2023-07-08T08:03:30;22.90;99.90
22319;DHT22;11327;52.334;9.506;2023-07-08T08:06:51;23.00;99.90
22319;DHT22;11327;52.334;9.506;2023-07-08T08:10:11;23.20;99.90
22319;DHT22;11327;52.334;9.506;2023-07-08T08:13:32;23.50;99.90
22319;DHT22;11327;52.334;9.506;2023-07-08T08:16:53;23.80;99.90
22319;DHT22;11327;52.334;9.506;2023-07-08T08:20:13;23.90;99.90
22319;DHT22;11327;52.334;9.506;2023-07-08T08:23:34;24.10;99.90
22319;DHT22;11327;52.334;9.506;2023-07-08T08:26:55;24.20;99.90
22319;DHT22;11327;52.334;9.506;2023-07-08T08:30:16;24.40;99.90
22319;DHT22;11327;52.334;9.506;2023-07-08T08:33:37;24.60;99.90
22319;DHT22;11327;52.334;9.506;2023-07-08T08:36:57;24.70;99.90
22319;DHT22;11327;52.334;9.506;2023-07-08T08:40:18;24.80;99.90
22319;DHT22;11327;52.334;9.506;2023-07-08T08:43:40;25.00;99.90
22319;DHT22;11327;52.334;9.506;2023-07-08T08:47:06;25.10;99.90
22319;DHT22;11327;52.334;9.506;2023-07-08T08:50:32;25.40;99.90
22319;DHT22;11327;52.334;9.506;2023-07-08T08:53:56;25.40;99.90
22319;DHT22;11327;52.334;9.506;2023-07-08T08:57:31;25.60;99.90
22319;DHT22;11327;52.334;9.506;2023-07-08T09:01:04;25.80;99.90
22319;DHT22;11327;52.334;9.506;2023-07-08T09:04:28;25.80;99.90
22319;DHT22;11327;52.334;9.506;2023-07-08T09:08:05;25.90;99.90
22319;DHT22;11327;52.334;9.506;2023-07-08T09:15:14;26.20;99.90
22319;DHT22;11327;52.334;9.506;2023-07-08T09:19:14;26.30;99.90
22319;DHT22;11327;52.334;9.506;2023-07-08T09:26:05;26.60;99.90
22319;DHT22;11327;52.334;9.506;2023-07-08T09:29:27;26.80;99.90
22319;DHT22;11327;52.334;9.506;2023-07-08T09:32:48;27.00;99.90
22319;DHT22;11327;52.334;9.506;2023-07-08T09:36:18;27.10;99.90
22319;DHT22;11327;52.334;9.506;2023-07-08T09:39:39;27.40;99.90
22319;DHT22;11327;52.334;9.506;2023-07-08T09:46:36;27.80;99.90
22319;DHT22;11327;52.334;9.506;2023-07-08T09:49:58;27.90;99.90
22319;DHT22;11327;52.334;9.506;2023-07-08T09:53:19;27.90;99.90
22319;DHT22;11327;52.334;9.506;2023-07-08T09:56:43;28.10;99.90
22319;DHT22;11327;52.334;9.506;2023-07-08T10:00:11;28.30;99.90
22319;DHT22;11327;52.334;9.506;2023-07-08T10:03:33;28.40;99.90
22319;DHT22;11327;52.334;9.506;2023-07-08T10:06:55;28.50;99.90
22319;DHT22;11327;52.334;9.506;2023-07-08T10:10:19;28.50;99.90
22319;DHT22;11327;52.334;9.506;2023-07-08T10:13:44;28.80;99.90
22319;DHT22;11327;52.334;9.506;2023-07-08T10:17:05;28.90;99.90
22319;DHT22;11327;52.334;9.506;2023-07-08T10:20:29;29.00;99.90
22319;DHT22;11327;52.334;9.506;2023-07-08T10:23:57;29.20;99.90
22319;DHT22;11327;52.334;9.506;2023-07-08T10:31:39;29.40;99.90
22319;DHT22;11327;52.334;9.506;2023-07-08T10:35:14;29.40;99.90
22319;DHT22;11327;52.334;9.506;2023-07-08T10:42:21;29.60;99.90
22319;DHT22;11327;52.334;9.506;2023-07-08T10:45:54;29.70;99.90
22319;DHT22;11327;52.334;9.506;2023-07-08T10:49:38;29.90;99.90
22319;DHT22;11327;52.334;9.506;2023-07-08T11:04:14;30.40;99.90
22319;DHT22;11327;52.334;9.506;2023-07-08T11:07:42;30.40;99.90
22319;DHT22;11327;52.334;9.506;2023-07-08T11:11:34;30.60;99.90
22319;DHT22;11327;52.334;9.506;2023-07-08T11:21:54;30.70;99.90
22319;DHT22;11327;52.334;9.506;2023-07-08T11:25:19;30.70;99.90
22319;DHT22;11327;52.334;9.506;2023-07-08T11:28:43;30.80;99.90
22319;DHT22;11327;52.334;9.506;2023-07-08T11:32:05;30.80;99.90
22319;DHT22;11327;52.334;9.506;2023-07-08T11:35:37;30.80;99.90
22319;DHT22;11327;52.334;9.506;2023-07-08T11:38:58;31.00;99.90
22319;DHT22;11327;52.334;9.506;2023-07-08T11:42:25;31.10;99.90
22319;DHT22;11327;52.334;9.506;2023-07-08T11:45:48;31.30;99.90
22319;DHT22;11327;52.334;9.506;2023-07-08T11:49:13;31.30;99.90
22319;DHT22;11327;52.334;9.506;2023-07-08T11:52:36;31.50;99.90
22319;DHT22;11327;52.334;9.506;2023-07-08T11:59:39;31.60;99.90
22319;DHT22;11327;52.334;9.506;2023-07-08T12:03:20;31.50;99.90
22319;DHT22;11327;52.334;9.506;2023-07-08T12:06:40;31.70;99.90
22319;DHT22;11327;52.334;9.506;2023-07-08T12:10:17;31.70;98.60
22319;DHT22;11327;52.334;9.506;2023-07-08T12:13:38;31.70;99.10
22319;DHT22;11327;52.334;9.506;2023-07-08T12:16:59;31.70;99.50
22319;DHT22;11327;52.334;9.506;2023-07-08T12:20:32;31.90;98.10
22319;DHT22;11327;52.334;9.506;2023-07-08T12:23:54;31.80;97.40
22319;DHT22;11327;52.334;9.506;2023-07-08T12:27:14;31.80;97.50
22319;DHT22;11327;52.334;9.506;2023-07-08T12:30:36;31.90;97.70
22319;DHT22;11327;52.334;9.506;2023-07-08T12:33:57;31.60;96.70
22319;DHT22;11327;52.334;9.506;2023-07-08T12:37:18;31.80;97.90
22319;DHT22;11327;52.334;9.506;2023-07-08T12:40:40;31.90;93.20
22319;DHT22;11327;52.334;9.506;2023-07-08T12:44:01;32.00;92.60
22319;DHT22;11327;52.334;9.506;2023-07-08T12:47:22;32.00;94.40
22319;DHT22;11327;52.334;9.506;2023-07-08T12:50:43;32.20;95.80
22319;DHT22;11327;52.334;9.506;2023-07-08T12:54:04;32.40;95.10
22319;DHT22;11327;52.334;9.506;2023-07-08T12:57:25;32.40;93.60
22319;DHT22;11327;52.334;9.506;2023-07-08T13:00:46;32.20;95.30
22319;DHT22;11327;52.334;9.506;2023-07-08T13:04:10;32.00;94.50
22319;DHT22;11327;52.334;9.506;2023-07-08T13:10:58;32.20;95.00
22319;DHT22;11327;52.334;9.506;2023-07-08T13:14:20;32.00;92.50
22319;DHT22;11327;52.334;9.506;2023-07-08T13:17:41;32.00;93.10
22319;DHT22;11327;52.334;9.506;2023-07-08T13:21:04;32.20;94.80
22319;DHT22;11327;52.334;9.506;2023-07-08T13:24:30;32.20;94.20
22319;DHT22;11327;52.334;9.506;2023-07-08T13:28:11;32.10;93.20
22319;DHT22;11327;52.334;9.506;2023-07-08T13:31:31;32.20;94.10
22319;DHT22;11327;52.334;9.506;2023-07-08T13:34:49;32.30;94.40
22319;DHT22;11327;52.334;9.506;2023-07-08T13:38:20;32.00;94.10
22319;DHT22;11327;52.334;9.506;2023-07-08T13:41:43;32.20;92.40
22319;DHT22;11327;52.334;9.506;2023-07-08T13:45:12;32.20;91.60
22319;DHT22;11327;52.334;9.506;2023-07-08T13:48:39;32.10;92.00
22319;DHT22;11327;52.334;9.506;2023-07-08T13:52:22;32.00;92.70
22319;DHT22;11327;52.334;9.506;2023-07-08T13:55:30;32.00;92.50
22319;DHT22;11327;52.334;9.506;2023-07-08T13:58:53;32.00;92.30
22319;DHT22;11327;52.334;9.506;2023-07-08T14:02:26;32.20;91.50
22319;DHT22;11327;52.334;9.506;2023-07-08T14:05:48;32.10;91.50
22319;DHT22;11327;52.334;9.506;2023-07-08T14:09:17;32.20;91.60
22319;DHT22;11327;52.334;9.506;2023-07-08T14:12:38;32.20;91.80
22319;DHT22;11327;52.334;9.506;2023-07-08T14:16:00;32.10;90.70
22319;DHT22;11327;52.334;9.506;2023-07-08T14:19:26;32.00;90.90
22319;DHT22;11327;52.334;9.506;2023-07-08T14:22:47;32.20;91.40
22319;DHT22;11327;52.334;9.506;2023-07-08T14:26:12;32.10;91.70
22319;DHT22;11327;52.334;9.506;2023-07-08T14:29:33;32.10;90.70
22319;DHT22;11327;52.334;9.506;2023-07-08T14:32:53;32.10;91.20
22319;DHT22;11327;52.334;9.506;2023-07-08T14:36:14;32.10;89.80
22319;DHT22;11327;52.334;9.506;2023-07-08T14:39:35;32.20;91.80
22319;DHT22;11327;52.334;9.506;2023-07-08T14:43:01;32.20;90.70
22319;DHT22;11327;52.334;9.506;2023-07-08T14:46:22;32.30;91.00
22319;DHT22;11327;52.334;9.506;2023-07-08T14:49:43;32.30;91.00
22319;DHT22;11327;52.334;9.506;2023-07-08T14:53:04;32.30;90.00
22319;DHT22;11327;52.334;9.506;2023-07-08T14:56:25;32.30;90.30
22319;DHT22;11327;52.334;9.506;2023-07-08T14:59:46;32.20;88.30
22319;DHT22;11327;52.334;9.506;2023-07-08T15:03:06;32.00;86.70
22319;DHT22;11327;52.334;9.506;2023-07-08T15:06:27;32.00;89.10
22319;DHT22;11327;52.334;9.506;2023-07-08T15:09:48;32.00;89.00
22319;DHT22;11327;52.334;9.506;2023-07-08T15:13:09;32.00;90.10
22319;DHT22;11327;52.334;9.506;2023-07-08T15:16:31;31.90;88.50
22319;DHT22;11327;52.334;9.506;2023-07-08T15:19:52;32.00;90.60
22319;DHT22;11327;52.334;9.506;2023-07-08T15:23:13;31.90;86.70
22319;DHT22;11327;52.334;9.506;2023-07-08T15:26:33;31.90;89.80
22319;DHT22;11327;52.334;9.506;2023-07-08T15:29:55;32.00;90.80
22319;DHT22;11327;52.334;9.506;2023-07-08T15:33:16;32.00;89.00
22319;DHT22;11327;52.334;9.506;2023-07-08T15:36:36;32.00;90.30
22319;DHT22;11327;52.334;9.506;2023-07-08T15:39:57;31.90;85.00
22319;DHT22;11327;52.334;9.506;2023-07-08T15:43:18;31.90;88.90
22319;DHT22;11327;52.334;9.506;2023-07-08T15:46:44;31.90;87.80
22319;DHT22;11327;52.334;9.506;2023-07-08T15:50:17;31.80;87.50
22319;DHT22;11327;52.334;9.506;2023-07-08T15:53:38;31.90;88.50
22319;DHT22;11327;52.334;9.506;2023-07-08T15:56:59;31.90;89.60
22319;DHT22;11327;52.334;9.506;2023-07-08T16:00:24;31.80;87.30
22319;DHT22;11327;52.334;9.506;2023-07-08T16:03:44;31.80;88.20
22319;DHT22;11327;52.334;9.506;2023-07-08T16:07:08;31.90;87.30
22319;DHT22;11327;52.334;9.506;2023-07-08T16:10:30;31.80;88.00
22319;DHT22;11327;52.334;9.506;2023-07-08T16:13:51;31.70;88.30
22319;DHT22;11327;52.334;9.506;2023-07-08T16:17:12;31.70;90.60
22319;DHT22;11327;52.334;9.506;2023-07-08T16:20:32;31.70;90.00
22319;DHT22;11327;52.334;9.506;2023-07-08T16:23:53;31.70;89.60
22319;DHT22;11327;52.334;9.506;2023-07-08T16:27:15;31.70;90.30
22319;DHT22;11327;52.334;9.506;2023-07-08T16:30:35;31.70;90.00
22319;DHT22;11327;52.334;9.506;2023-07-08T16:33:56;31.60;88.90
22319;DHT22;11327;52.334;9.506;2023-07-08T16:37:17;31.50;89.90
22319;DHT22;11327;52.334;9.506;2023-07-08T16:40:38;31.50;90.70
22319;DHT22;11327;52.334;9.506;2023-07-08T16:43:59;31.50;92.20
22319;DHT22;11327;52.334;9.506;2023-07-08T16:47:20;31.50;92.50
22319;DHT22;11327;52.334;9.506;2023-07-08T16:50:40;31.40;91.70
22319;DHT22;11327;52.334;9.506;2023-07-08T16:57:32;31.30;91.40
22319;DHT22;11327;52.334;9.506;2023-07-08T17:00:52;31.30;91.50
22319;DHT22;11327;52.334;9.506;2023-07-08T17:04:14;31.20;92.60
22319;DHT22;11327;52.334;9.506;2023-07-08T17:07:35;31.20;93.30
22319;DHT22;11327;52.334;9.506;2023-07-08T17:10:55;31.10;93.30
22319;DHT22;11327;52.334;9.506;2023-07-08T17:14:16;31.00;93.60
22319;DHT22;11327;52.334;9.506;2023-07-08T17:17:37;31.00;93.90
22319;DHT22;11327;52.334;9.506;2023-07-08T17:21:00;30.90;93.90
22319;DHT22;11327;52.334;9.506;2023-07-08T17:24:21;30.80;93.90
22319;DHT22;11327;52.334;9.506;2023-07-08T17:27:42;30.80;94.10
22319;DHT22;11327;52.334;9.506;2023-07-08T17:31:04;30.60;94.30
22319;DHT22;11327;52.334;9.506;2023-07-08T17:34:25;30.60;93.60
22319;DHT22;11327;52.334;9.506;2023-07-08T17:37:47;30.50;92.90
22319;DHT22;11327;52.334;9.506;2023-07-08T17:41:10;30.50;92.90
22319;DHT22;11327;52.334;9.506;2023-07-08T17:44:31;30.40;93.30
22319;DHT22;11327;52.334;9.506;2023-07-08T17:47:51;30.40;94.10
22319;DHT22;11327;52.334;9.506;2023-07-08T17:51:14;30.30;95.10
22319;DHT22;11327;52.334;9.506;2023-07-08T17:54:35;30.30;95.60
22319;DHT22;11327;52.334;9.506;2023-07-08T17:57:56;30.40;95.70
22319;DHT22;11327;52.334;9.506;2023-07-08T18:01:16;30.50;95.20
22319;DHT22;11327;52.334;9.506;2023-07-08T18:04:37;30.40;94.90
22319;DHT22;11327;52.334;9.506;2023-07-08T18:07:58;30.10;95.30
22319;DHT22;11327;52.334;9.506;2023-07-08T18:11:21;29.80;96.00
22319;DHT22;11327;52.334;9.506;2023-07-08T18:14:45;29.60;96.50
22319;DHT22;11327;52.334;9.506;2023-07-08T18:18:09;29.40;96.90
22319;DHT22;11327;52.334;9.506;2023-07-08T18:21:30;29.30;97.10
22319;DHT22;11327;52.334;9.506;2023-07-08T18:24:51;29.10;97.30
22319;DHT22;11327;52.334;9.506;2023-07-08T18:28:12;29.00;97.70
22319;DHT22;11327;52.334;9.506;2023-07-08T18:31:35;28.90;98.30
22319;DHT22;11327;52.334;9.506;2023-07-08T18:34:56;28.70;98.70
22319;DHT22;11327;52.334;9.506;2023-07-08T18:38:16;28.60;99.40
22319;DHT22;11327;52.334;9.506;2023-07-08T18:41:43;28.40;99.90
22319;DHT22;11327;52.334;9.506;2023-07-08T18:45:06;28.30;99.90
22319;DHT22;11327;52.334;9.506;2023-07-08T18:48:27;28.10;99.90
22319;DHT22;11327;52.334;9.506;2023-07-08T18:51:47;28.00;99.90
22319;DHT22;11327;52.334;9.506;2023-07-08T18:55:20;27.90;99.90
22319;DHT22;11327;52.334;9.506;2023-07-08T18:58:37;27.80;99.90
22319;DHT22;11327;52.334;9.506;2023-07-08T19:01:58;27.70;99.90
22319;DHT22;11327;52.334;9.506;2023-07-08T19:05:20;27.50;99.90
22319;DHT22;11327;52.334;9.506;2023-07-08T19:08:42;27.40;99.90
22319;DHT22;11327;52.334;9.506;2023-07-08T19:12:08;27.20;99.90
22319;DHT22;11327;52.334;9.506;2023-07-08T19:15:31;27.20;99.90
22319;DHT22;11327;52.334;9.506;2023-07-08T19:18:52;27.00;99.90
22319;DHT22;11327;52.334;9.506;2023-07-08T19:22:18;27.00;99.90
22319;DHT22;11327;52.334;9.506;2023-07-08T19:25:40;26.80;99.90
22319;DHT22;11327;52.334;9.506;2023-07-08T19:29:00;26.60;99.90
22319;DHT22;11327;52.334;9.506;2023-07-08T19:32:21;26.60;99.90
22319;DHT22;11327;52.334;9.506;2023-07-08T19:35:44;26.40;99.90
22319;DHT22;11327;52.334;9.506;2023-07-08T19:39:05;26.30;99.90
22319;DHT22;11327;52.334;9.506;2023-07-08T19:42:26;26.20;99.90
22319;DHT22;11327;52.334;9.506;2023-07-08T19:45:47;26.10;99.90
22319;DHT22;11327;52.334;9.506;2023-07-08T19:49:09;26.00;99.90
22319;DHT22;11327;52.334;9.506;2023-07-08T19:52:30;25.90;99.90
22319;DHT22;11327;52.334;9.506;2023-07-08T19:55:50;25.70;99.90
22319;DHT22;11327;52.334;9.506;2023-07-08T19:59:13;25.70;99.90
22319;DHT22;11327;52.334;9.506;2023-07-08T20:02:35;25.60;99.90
22319;DHT22;11327;52.334;9.506;2023-07-08T20:05:56;25.50;99.90
22319;DHT22;11327;52.334;9.506;2023-07-08T20:09:18;25.40;99.90
22319;DHT22;11327;52.334;9.506;2023-07-08T20:12:39;25.30;99.90
22319;DHT22;11327;52.334;9.506;2023-07-08T20:16:20;25.20;99.90
22319;DHT22;11327;52.334;9.506;2023-07-08T20:19:41;25.10;99.90
22319;DHT22;11327;52.334;9.506;2023-07-08T20:23:02;25.00;99.90
22319;DHT22;11327;52.334;9.506;2023-07-08T20:26:32;24.80;99.90
22319;DHT22;11327;52.334;9.506;2023-07-08T20:29:55;24.70;99.90
22319;DHT22;11327;52.334;9.506;2023-07-08T20:33:15;24.60;99.90
22319;DHT22;11327;52.334;9.506;2023-07-08T20:36:36;24.50;99.90
22319;DHT22;11327;52.334;9.506;2023-07-08T20:39:57;24.40;99.90
22319;DHT22;11327;52.334;9.506;2023-07-08T20:43:19;24.40;99.90
22319;DHT22;11327;52.334;9.506;2023-07-08T20:46:42;24.20;99.90
22319;DHT22;11327;52.334;9.506;2023-07-08T20:50:17;24.10;99.90
22319;DHT22;11327;52.334;9.506;2023-07-08T20:53:38;24.00;99.90
22319;DHT22;11327;52.334;9.506;2023-07-08T20:56:59;23.90;99.90
22319;DHT22;11327;52.334;9.506;2023-07-08T21:00:25;23.80;99.90
22319;DHT22;11327;52.334;9.506;2023-07-08T21:03:46;23.60;99.90
22319;DHT22;11327;52.334;9.506;2023-07-08T21:07:08;23.50;99.90
22319;DHT22;11327;52.334;9.506;2023-07-08T21:10:29;23.40;99.90
22319;DHT22;11327;52.334;9.506;2023-07-08T21:13:50;23.20;99.90
22319;DHT22;11327;52.334;9.506;2023-07-08T21:17:15;23.20;99.90
22319;DHT22;11327;52.334;9.506;2023-07-08T21:20:36;23.10;99.90
22319;DHT22;11327;52.334;9.506;2023-07-08T21:23:57;23.00;99.90
22319;DHT22;11327;52.334;9.506;2023-07-08T21:27:22;23.00;99.90
22319;DHT22;11327;52.334;9.506;2023-07-08T21:30:43;22.90;99.90
22319;DHT22;11327;52.334;9.506;2023-07-08T21:34:04;22.90;99.90
22319;DHT22;11327;52.334;9.506;2023-07-08T21:37:25;22.80;99.90
22319;DHT22;11327;52.334;9.506;2023-07-08T21:40:51;22.80;99.90
22319;DHT22;11327;52.334;9.506;2023-07-08T21:44:14;22.80;99.90
22319;DHT22;11327;52.334;9.506;2023-07-08T21:47:35;22.70;99.90
22319;DHT22;11327;52.334;9.506;2023-07-08T21:50:57;22.70;99.90
22319;DHT22;11327;52.334;9.506;2023-07-08T21:54:19;22.60;99.90
22319;DHT22;11327;52.334;9.506;2023-07-08T21:57:40;22.50;99.90
22319;DHT22;11327;52.334;9.506;2023-07-08T22:01:00;22.40;99.90
22319;DHT22;11327;52.334;9.506;2023-07-08T22:04:21;22.30;99.90
22319;DHT22;11327;52.334;9.506;2023-07-08T22:07:43;22.30;99.90
22319;DHT22;11327;52.334;9.506;2023-07-08T22:11:13;22.20;99.90